Time;durP1;ratioP1;P1;durP2;ratioP2;P2;SDS_P1;SDS_P2;PMS_P1;PMS_P2;Temp;Humidity;BMP_temperature;BMP_pressure;BME280_temperature;BME280_humidity;BME280_pressure;Samples;Min_cycle;Max_cycle;Signal;HPM_P1;HPM_P2
2023/12/31 00:02:05;;;;;;;2.25;1.02;;;;;;;18.62;47.18;100331.44;5061666;28;20460;-68
2023/12/31 00:04:30;;;;;;;2.42;1.08;;;;;;;18.65;46.95;100328.50;5061852;28;20063;-68
2023/12/31 00:06:55;;;;;;;1.95;1.00;;;;;;;18.66;47.07;100327.53;5061949;28;20480;-69
2023/12/31 00:09:21;;;;;;;2.85;1.20;;;;;;;18.65;47.01;100318.78;5061646;28;20060;-68
2023/12/31 00:11:46;;;;;;;3.70;1.30;;;;;;;18.54;47.11;100289.91;5061782;28;20033;-69
2023/12/31 00:14:11;;;;;;;3.70;1.10;;;;;;;18.53;47.03;100288.22;5061901;28;20029;-68
2023/12/31 00:16:36;;;;;;;2.50;1.17;;;;;;;18.61;47.11;100291.03;5061705;28;20032;-67
2023/12/31 00:19:02;;;;;;;2.80;1.23;;;;;;;18.59;46.73;100285.03;5060875;28;20376;-68
2023/12/31 00:21:27;;;;;;;3.28;1.20;;;;;;;18.51;46.88;100265.59;5060470;28;20032;-69
2023/12/31 00:23:52;;;;;;;2.43;1.10;;;;;;;18.60;46.91;100268.22;5060618;28;20021;-67
2023/12/31 00:26:18;;;;;;;2.08;1.00;;;;;;;18.50;46.64;100259.50;5060751;28;20825;-69
2023/12/31 00:28:43;;;;;;;3.40;1.17;;;;;;;18.54;46.83;100265.31;5060690;28;20021;-67
2023/12/31 00:31:08;;;;;;;3.28;1.17;;;;;;;18.49;46.76;100252.56;5060434;28;20738;-69
2023/12/31 00:33:33;;;;;;;2.67;1.20;;;;;;;18.45;46.69;100241.47;5060725;28;20024;-67
2023/12/31 00:36:00;;;;;;;2.70;1.10;;;;;;;18.41;46.71;100231.31;5060299;28;20033;-69
2023/12/31 00:38:26;;;;;;;3.13;1.38;;;;;;;18.41;46.81;100228.69;5060369;28;20284;-68
2023/12/31 00:40:52;;;;;;;4.20;1.23;;;;;;;18.51;46.63;100237.41;5060845;28;20036;-70
2023/12/31 00:43:17;;;;;;;1.85;0.93;;;;;;;18.41;46.66;100226.06;5058117;28;20064;-67
2023/12/31 00:45:42;;;;;;;2.17;0.95;;;;;;;18.46;46.83;100224.63;5060308;28;20555;-68
2023/12/31 00:48:08;;;;;;;1.15;0.75;;;;;;;18.49;46.65;100224.34;5059927;28;20036;-68
2023/12/31 00:50:34;;;;;;;2.88;1.08;;;;;;;18.46;46.72;100223.81;5060318;28;20138;-67
2023/12/31 00:53:00;;;;;;;2.80;1.10;;;;;;;18.48;46.78;100228.00;5060153;28;20474;-67
2023/12/31 00:55:25;;;;;;;2.75;0.88;;;;;;;18.45;46.73;100223.00;5060205;28;20033;-68
2023/12/31 00:57:50;;;;;;;2.40;1.10;;;;;;;18.34;46.71;100198.56;5060191;28;20039;-68
2023/12/31 01:00:16;;;;;;;3.80;1.23;;;;;;;18.45;46.66;100224.78;5060310;28;20426;-68
2023/12/31 01:02:41;;;;;;;2.97;1.08;;;;;;;18.36;46.63;100215.06;5060145;28;20040;-68
2023/12/31 01:05:07;;;;;;;1.85;0.98;;;;;;;18.42;46.54;100219.78;5061467;28;20037;-69
2023/12/31 01:07:32;;;;;;;2.30;1.00;;;;;;;18.34;46.68;100202.03;5059873;28;20496;-69
2023/12/31 01:09:57;;;;;;;2.05;1.00;;;;;;;18.39;46.47;100197.16;5060717;28;20055;-68
2023/12/31 01:12:23;;;;;;;1.70;0.90;;;;;;;18.39;46.61;100202.44;5060547;28;20021;-69
2023/12/31 01:14:48;;;;;;;1.52;0.80;;;;;;;18.31;46.61;100181.22;5060579;28;20257;-68
2023/12/31 01:17:13;;;;;;;2.05;1.00;;;;;;;18.41;46.56;100183.84;5060647;28;21273;-68
2023/12/31 01:19:39;;;;;;;2.13;0.95;;;;;;;18.39;46.50;100175.22;5060035;28;20457;-69
2023/12/31 01:22:04;;;;;;;2.27;0.90;;;;;;;18.38;46.30;100178.84;5060239;28;20024;-69
2023/12/31 01:24:30;;;;;;;2.03;0.90;;;;;;;18.37;46.31;100172.72;5060114;28;20607;-68
2023/12/31 01:26:55;;;;;;;2.00;0.80;;;;;;;18.28;46.37;100149.84;5059758;28;20469;-70
2023/12/31 01:29:20;;;;;;;2.47;0.90;;;;;;;18.32;46.29;100153.84;5060377;28;20133;-70
2023/12/31 01:31:46;;;;;;;2.63;0.98;;;;;;;18.31;46.26;100144.28;5060208;28;20040;-69
2023/12/31 01:34:12;;;;;;;2.03;0.90;;;;;;;18.34;46.19;100149.28;5059291;28;20040;-69
2023/12/31 01:36:37;;;;;;;1.73;0.88;;;;;;;18.25;46.28;100136.94;5059032;28;20036;-69
2023/12/31 01:39:02;;;;;;;2.67;1.00;;;;;;;18.27;46.49;100141.09;5059067;28;20167;-69
2023/12/31 01:41:29;;;;;;;2.95;1.08;;;;;;;18.31;46.02;100147.75;5058901;28;20142;-69
2023/12/31 01:44:06;;;;;;;2.58;0.90;;;;;;;18.31;46.26;100136.38;5058930;28;20124;-69
2023/12/31 01:46:32;;;;;;;3.30;0.90;;;;;;;18.16;46.15;100109.59;5058971;28;20021;-69
2023/12/31 01:48:59;;;;;;;1.80;0.88;;;;;;;18.29;46.35;100133.88;5059551;28;20429;-67
2023/12/31 01:51:26;;;;;;;2.15;0.93;;;;;;;18.29;46.15;100131.25;5059912;28;20040;-67
2023/12/31 01:53:52;;;;;;;1.95;0.85;;;;;;;18.28;46.33;100126.13;5059874;28;20358;-68
2023/12/31 01:56:19;;;;;;;2.78;0.90;;;;;;;18.19;46.38;100108.50;5058949;28;20033;-68
2023/12/31 01:58:46;;;;;;;2.80;1.10;;;;;;;18.20;46.11;100102.22;5059790;28;20178;-66
2023/12/31 02:01:12;;;;;;;1.30;0.70;;;;;;;18.18;46.21;100099.75;5059976;28;20549;-66
2023/12/31 02:03:37;;;;;;;1.00;0.60;;;;;;;18.25;46.18;100106.13;5058815;28;20045;-68
2023/12/31 02:06:02;;;;;;;1.83;0.82;;;;;;;18.26;46.21;100114.84;5059068;28;20025;-68
2023/12/31 02:08:28;;;;;;;1.92;0.95;;;;;;;18.24;46.10;100101.00;5058526;28;20060;-68
2023/12/31 02:10:53;;;;;;;2.13;0.90;;;;;;;18.13;46.07;100073.81;5059241;28;20031;-67
2023/12/31 02:13:19;;;;;;;2.05;0.90;;;;;;;18.18;46.00;100086.56;5058605;28;20371;-68
2023/12/31 02:15:44;;;;;;;1.85;0.77;;;;;;;18.13;46.32;100079.09;5059193;28;20457;-68
2023/12/31 02:18:10;;;;;;;2.08;0.80;;;;;;;18.21;46.24;100077.53;5058812;28;20048;-68
2023/12/31 02:20:35;;;;;;;1.40;0.70;;;;;;;18.22;46.19;100080.03;5058951;28;20055;-68
2023/12/31 02:23:00;;;;;;;1.83;0.85;;;;;;;18.18;46.38;100065.47;5058239;28;20500;-69
2023/12/31 02:25:28;;;;;;;1.55;0.70;;;;;;;18.21;45.91;100067.81;5058988;28;20036;-67
2023/12/31 02:27:54;;;;;;;2.92;1.00;;;;;;;18.21;46.11;100057.25;5045617;28;20032;-68
2023/12/31 02:30:20;;;;;;;1.08;0.65;;;;;;;18.17;45.91;100053.25;5058940;28;20219;-67
2023/12/31 02:32:45;;;;;;;2.03;1.10;;;;;;;18.09;45.82;100021.50;5058766;28;20124;-68
2023/12/31 02:35:11;;;;;;;1.95;0.82;;;;;;;18.15;46.14;100031.50;5058749;28;20515;-69
2023/12/31 02:37:36;;;;;;;1.98;1.02;;;;;;;18.10;45.82;100021.38;5058420;28;20086;-69
2023/12/31 02:40:02;;;;;;;2.25;1.05;;;;;;;18.15;45.92;100015.66;5045264;28;20040;-68
2023/12/31 02:42:27;;;;;;;3.10;1.08;;;;;;;18.10;46.06;100012.59;5058864;28;21471;-69
2023/12/31 02:44:52;;;;;;;1.50;0.77;;;;;;;18.15;45.89;100010.41;5058566;28;20436;-69
2023/12/31 02:47:18;;;;;;;1.65;0.70;;;;;;;18.17;46.00;100002.34;5058578;28;20036;-67
2023/12/31 02:49:43;;;;;;;1.23;0.60;;;;;;;18.15;45.95;100001.63;5058548;28;20044;-69
2023/12/31 02:52:11;;;;;;;2.22;1.02;;;;;;;18.08;45.84;99978.47;5059451;28;20135;-68
2023/12/31 02:54:37;;;;;;;2.10;0.90;;;;;;;18.15;45.89;99991.09;5058948;28;20040;-68
2023/12/31 02:57:06;;;;;;;2.05;0.80;;;;;;;18.12;46.00;99985.13;5059409;28;20043;-69
2023/12/31 02:59:32;;;;;;;1.98;0.70;;;;;;;18.12;46.01;99981.69;5059110;28;20108;-68
2023/12/31 03:01:57;;;;;;;1.63;0.80;;;;;;;18.12;45.70;99977.22;5058453;28;20124;-67
2023/12/31 03:04:22;;;;;;;2.22;0.80;;;;;;;18.02;45.89;99957.13;5059001;28;21263;-68
2023/12/31 03:06:51;;;;;;;1.67;1.00;;;;;;;18.03;45.78;99950.91;5059985;28;20037;-69
2023/12/31 03:09:17;;;;;;;2.17;0.95;;;;;;;18.01;45.89;99944.94;5061928;28;20067;-68
2023/12/31 03:11:42;;;;;;;2.55;0.80;;;;;;;18.11;45.75;99964.19;5062266;28;20048;-69
2023/12/31 03:14:07;;;;;;;2.97;1.00;;;;;;;18.01;45.91;99937.00;5062202;28;20032;-69
2023/12/31 03:16:32;;;;;;;1.97;0.90;;;;;;;18.00;45.61;99935.38;5062116;28;20112;-69
2023/12/31 03:18:58;;;;;;;1.67;0.73;;;;;;;18.09;45.89;99931.88;5062488;28;20286;-68
2023/12/31 03:21:23;;;;;;;1.60;0.77;;;;;;;18.01;45.67;99908.00;5062869;28;20754;-69
2023/12/31 03:23:48;;;;;;;1.80;0.77;;;;;;;17.98;45.67;99885.44;5062346;28;20029;-69
2023/12/31 03:26:13;;;;;;;1.85;0.85;;;;;;;18.00;46.01;99899.28;5062526;28;20459;-69
2023/12/31 03:28:39;;;;;;;1.93;0.83;;;;;;;18.06;45.63;99903.97;5062949;28;20025;-68
2023/12/31 03:31:04;;;;;;;2.22;0.90;;;;;;;18.04;45.57;99895.41;5062613;28;20254;-68
2023/12/31 03:33:30;;;;;;;1.30;0.68;;;;;;;18.03;45.57;99877.09;5062159;28;20071;-67
2023/12/31 03:35:55;;;;;;;3.05;0.80;;;;;;;17.97;45.76;99872.41;5061900;28;20029;-69
2023/12/31 03:38:21;;;;;;;3.03;0.75;;;;;;;18.02;45.61;99867.50;5048839;28;20118;-69
2023/12/31 03:40:46;;;;;;;2.40;0.90;;;;;;;18.04;45.72;99860.25;5061608;28;20045;-69
2023/12/31 03:43:12;;;;;;;2.67;0.77;;;;;;;18.05;45.69;99861.94;5061580;28;20079;-69
2023/12/31 03:45:37;;;;;;;1.70;0.60;;;;;;;17.94;45.81;99841.88;5061439;28;20477;-68
2023/12/31 03:48:03;;;;;;;1.85;0.88;;;;;;;18.05;45.70;99844.31;5061640;28;20040;-68
2023/12/31 03:50:28;;;;;;;1.48;0.73;;;;;;;18.05;45.70;99846.13;5065837;28;20044;-69
2023/12/31 03:52:53;;;;;;;2.17;0.63;;;;;;;18.00;45.46;99825.47;5062284;28;20069;-68
2023/12/31 03:55:18;;;;;;;1.67;0.63;;;;;;;17.95;45.94;99818.00;5062293;28;20287;-69
2023/12/31 03:57:44;;;;;;;1.67;0.80;;;;;;;18.04;45.74;99833.91;5062603;28;20119;-69
2023/12/31 04:00:09;;;;;;;1.40;0.73;;;;;;;18.04;45.45;99828.63;5061657;28;20063;-68
2023/12/31 04:02:35;;;;;;;2.67;0.80;;;;;;;18.00;45.73;99809.66;5061345;28;20284;-69
2023/12/31 04:05:02;;;;;;;1.45;0.77;;;;;;;17.98;45.71;99805.53;5061726;28;20060;-69
2023/12/31 04:07:27;;;;;;;2.28;0.73;;;;;;;17.97;45.69;99799.41;5061332;28;20091;-69
2023/12/31 04:09:53;;;;;;;2.38;0.90;;;;;;;18.00;45.74;99788.56;5061007;28;20513;-68
2023/12/31 04:12:18;;;;;;;1.77;0.73;;;;;;;17.97;45.76;99786.22;5060863;28;20028;-67
2023/12/31 04:14:43;;;;;;;1.58;0.82;;;;;;;18.00;45.75;99790.38;5061151;28;20025;-69
2023/12/31 04:17:08;;;;;;;2.58;0.88;;;;;;;17.91;45.95;99773.63;5060487;28;20029;-69
2023/12/31 04:19:34;;;;;;;1.73;0.80;;;;;;;17.99;45.63;99770.25;5060762;28;20526;-68
2023/12/31 04:21:59;;;;;;;1.98;0.82;;;;;;;17.98;45.79;99772.06;5061554;28;20265;-68
2023/12/31 04:24:25;;;;;;;2.47;0.90;;;;;;;17.83;45.74;99740.09;5032389;28;20032;-68
2023/12/31 04:26:50;;;;;;;1.40;0.73;;;;;;;17.87;45.85;99744.09;5061693;28;20032;-67
2023/12/31 04:29:15;;;;;;;2.83;0.90;;;;;;;17.87;45.50;99738.81;5061752;28;20362;-68
2023/12/31 04:31:42;;;;;;;1.98;0.80;;;;;;;17.87;45.67;99736.19;5061604;28;20390;-68
2023/12/31 04:34:08;;;;;;;2.72;1.05;;;;;;;17.94;45.72;99750.47;5061201;28;20029;-68
2023/12/31 04:36:33;;;;;;;1.67;0.80;;;;;;;17.81;45.73;99726.22;5061348;28;20032;-69
2023/12/31 04:38:58;;;;;;;1.80;0.70;;;;;;;17.93;45.87;99751.44;5061385;28;20133;-69
2023/12/31 04:41:24;;;;;;;1.92;0.73;;;;;;;17.94;45.69;99745.19;5061286;28;20824;-68
2023/12/31 04:43:49;;;;;;;1.60;0.80;;;;;;;17.84;45.64;99731.19;5061075;28;20071;-68
2023/12/31 04:46:17;;;;;;;1.67;0.70;;;;;;;17.88;45.61;99729.97;5060149;28;20032;-68
2023/12/31 04:48:42;;;;;;;2.15;0.73;;;;;;;17.93;45.60;99730.34;5061026;28;20057;-69
2023/12/31 04:51:07;;;;;;;1.17;0.70;;;;;;;17.83;45.94;99715.53;5060301;28;20079;-69
2023/12/31 04:53:33;;;;;;;1.60;0.75;;;;;;;17.92;45.67;99717.31;5059980;28;20037;-70
2023/12/31 04:55:58;;;;;;;1.42;0.73;;;;;;;17.90;45.56;99716.63;5059901;28;20778;-67
2023/12/31 04:58:24;;;;;;;1.50;0.80;;;;;;;17.82;45.66;99695.44;5060348;28;20123;-67
2023/12/31 05:00:49;;;;;;;1.70;0.90;;;;;;;17.91;45.74;99710.38;5060655;28;20276;-68
2023/12/31 05:03:14;;;;;;;1.67;0.85;;;;;;;17.83;45.60;99692.66;5059825;28;20280;-68
2023/12/31 05:05:40;;;;;;;1.47;0.70;;;;;;;17.80;45.40;99685.06;5060094;28;20037;-68
2023/12/31 05:08:05;;;;;;;2.22;0.90;;;;;;;17.89;45.55;99693.88;5059943;28;20294;-68
2023/12/31 05:10:30;;;;;;;1.77;0.63;;;;;;;17.90;45.59;99685.81;5059708;28;20036;-70
2023/12/31 05:12:56;;;;;;;1.40;0.80;;;;;;;17.89;45.69;99686.78;5060137;28;20489;-68
2023/12/31 05:15:22;;;;;;;1.90;0.70;;;;;;;17.84;45.43;99680.31;5059610;28;20979;-68
2023/12/31 05:17:47;;;;;;;3.05;0.95;;;;;;;17.80;45.41;99668.41;5059747;28;20051;-67
2023/12/31 05:20:12;;;;;;;1.27;0.73;;;;;;;17.87;45.49;99677.38;5059466;28;20369;-68
2023/12/31 05:22:37;;;;;;;2.15;0.90;;;;;;;17.83;45.73;99660.19;5059516;28;20349;-68
2023/12/31 05:25:03;;;;;;;1.08;0.73;;;;;;;17.89;45.69;99662.25;5059323;28;20492;-69
2023/12/31 05:27:28;;;;;;;1.67;0.80;;;;;;;17.80;45.89;99642.03;5059470;28;20047;-68
2023/12/31 05:29:54;;;;;;;2.10;0.90;;;;;;;17.89;45.83;99664.88;5058534;28;20033;-66
2023/12/31 05:32:19;;;;;;;1.13;0.77;;;;;;;17.85;45.62;99645.03;5059742;28;20036;-67
2023/12/31 05:34:44;;;;;;;1.60;0.70;;;;;;;17.76;45.36;99629.16;5059617;28;20031;-68
2023/12/31 05:37:10;;;;;;;1.92;0.80;;;;;;;17.88;45.49;99636.88;5059923;28;20029;-67
2023/12/31 05:39:35;;;;;;;1.15;0.63;;;;;;;17.86;45.64;99625.63;5059678;28;20032;-68
2023/12/31 05:42:00;;;;;;;1.75;0.75;;;;;;;17.82;45.66;99625.13;5060493;28;20090;-67
2023/12/31 05:44:25;;;;;;;1.77;0.73;;;;;;;17.86;45.48;99628.25;5059912;28;20030;-69
2023/12/31 05:46:51;;;;;;;1.75;0.80;;;;;;;17.79;45.42;99617.50;5059562;28;20091;-67
2023/12/31 05:49:16;;;;;;;1.77;0.80;;;;;;;17.83;45.69;99610.97;5062733;28;20050;-68
2023/12/31 05:51:41;;;;;;;1.70;0.80;;;;;;;17.73;45.47;99594.41;5065947;28;20365;-68
2023/12/31 05:54:06;;;;;;;1.48;0.80;;;;;;;17.84;45.38;99615.25;5047779;28;20033;-67
2023/12/31 05:56:32;;;;;;;1.52;0.90;;;;;;;17.85;45.51;99610.78;5065798;28;20032;-67
2023/12/31 05:58:57;;;;;;;1.38;0.85;;;;;;;17.75;45.40;99605.59;5065489;28;20115;-68
2023/12/31 06:01:22;;;;;;;2.15;0.90;;;;;;;17.74;45.75;99588.16;5065103;28;20032;-67
2023/12/31 06:03:47;;;;;;;1.88;0.80;;;;;;;17.84;45.48;99601.25;5064638;28;20036;-68
2023/12/31 06:06:13;;;;;;;1.63;0.80;;;;;;;17.83;45.64;99600.44;5065716;28;20071;-66
2023/12/31 06:08:38;;;;;;;1.40;0.73;;;;;;;17.83;45.92;99597.78;5065908;28;20257;-67
2023/12/31 06:11:03;;;;;;;2.00;0.75;;;;;;;17.84;45.77;99590.69;5065041;28;20063;-69
2023/12/31 06:13:29;;;;;;;1.15;0.70;;;;;;;17.81;46.00;99576.00;5065494;28;20039;-68
2023/12/31 06:15:54;;;;;;;1.17;0.65;;;;;;;17.83;46.04;99587.25;5065737;28;20055;-68
2023/12/31 06:18:19;;;;;;;2.28;0.90;;;;;;;17.79;45.95;99556.09;5063744;28;20115;-68
2023/12/31 06:20:45;;;;;;;1.80;0.80;;;;;;;17.81;46.04;99562.00;5065290;28;20035;-68
2023/12/31 06:23:10;;;;;;;2.33;1.05;;;;;;;17.86;46.03;99565.00;5066673;28;20090;-68
2023/12/31 06:25:35;;;;;;;2.20;0.80;;;;;;;17.87;45.93;99554.31;5066462;28;20116;-68
2023/12/31 06:28:01;;;;;;;2.22;0.70;;;;;;;17.88;45.87;99548.09;5065966;28;20792;-68
2023/12/31 06:30:26;;;;;;;1.40;0.80;;;;;;;18.02;45.86;99554.59;5065730;28;20453;-67
2023/12/31 06:32:51;;;;;;;1.77;0.75;;;;;;;18.05;45.77;99553.47;5066228;28;20415;-68
2023/12/31 06:35:17;;;;;;;2.27;0.70;;;;;;;17.97;45.84;99537.63;5066173;28;20444;-69
2023/12/31 06:37:42;;;;;;;1.48;0.80;;;;;;;18.10;46.12;99543.28;5066503;28;20312;-67
2023/12/31 06:40:08;;;;;;;2.73;0.77;;;;;;;18.12;46.01;99530.78;5065636;28;20037;-67
2023/12/31 06:42:33;;;;;;;1.70;0.82;;;;;;;18.16;45.81;99523.38;5069641;28;20292;-68
2023/12/31 06:44:59;;;;;;;1.13;0.63;;;;;;;18.12;45.76;99507.88;5070085;28;20442;-68
2023/12/31 06:47:24;;;;;;;1.73;1.00;;;;;;;18.23;45.96;99522.59;5070189;28;20078;-68
2023/12/31 06:49:51;;;;;;;2.00;1.00;;;;;;;18.26;45.86;99513.53;5064896;28;20056;-68
2023/12/31 06:52:17;;;;;;;1.85;0.90;;;;;;;18.27;45.53;99502.84;5062517;28;20037;-68
2023/12/31 06:54:42;;;;;;;0.95;0.63;;;;;;;18.22;45.74;99493.75;5062630;28;20507;-68
2023/12/31 06:57:08;;;;;;;1.40;0.70;;;;;;;18.29;45.65;99505.31;5062723;28;20033;-67
2023/12/31 06:59:34;;;;;;;1.40;0.68;;;;;;;18.25;45.69;99481.06;5062342;28;20524;-68
2023/12/31 07:01:59;;;;;;;2.78;0.80;;;;;;;18.23;45.75;99477.78;5062253;28;20028;-68
2023/12/31 07:04:24;;;;;;;1.70;0.70;;;;;;;18.24;45.39;99473.31;5063168;28;20048;-68
2023/12/31 07:06:49;;;;;;;1.48;0.70;;;;;;;18.25;45.39;99480.25;5062419;28;20465;-67
2023/12/31 07:09:15;;;;;;;1.27;0.65;;;;;;;18.30;45.70;99489.34;5062427;28;20029;-68
2023/12/31 07:11:41;;;;;;;1.33;0.70;;;;;;;18.35;45.73;99486.22;5062628;28;20082;-69
2023/12/31 07:14:06;;;;;;;1.38;0.70;;;;;;;18.28;45.47;99477.31;5062135;28;20487;-69
2023/12/31 07:16:31;;;;;;;1.17;0.70;;;;;;;18.34;45.48;99474.03;5062526;28;20028;-68
2023/12/31 07:18:57;;;;;;;1.48;0.73;;;;;;;18.29;45.91;99447.28;5061768;28;20735;-69
2023/12/31 07:21:23;;;;;;;1.83;0.80;;;;;;;18.30;45.67;99451.59;5061928;28;20416;-68
2023/12/31 07:23:48;;;;;;;1.52;0.73;;;;;;;18.31;45.72;99451.44;5062236;28;20051;-69
2023/12/31 07:26:24;;;;;;;1.27;0.70;;;;;;;18.29;45.78;99444.66;5062034;28;20033;-69
2023/12/31 07:28:49;;;;;;;1.50;0.88;;;;;;;18.27;45.75;99436.91;5061510;28;20090;-67
2023/12/31 07:31:14;;;;;;;1.53;0.77;;;;;;;18.25;45.55;99449.44;5061827;28;20037;-69
2023/12/31 07:33:39;;;;;;;2.03;0.77;;;;;;;18.33;45.73;99443.38;5061646;28;20257;-69
2023/12/31 07:36:05;;;;;;;1.47;0.80;;;;;;;18.32;45.60;99441.69;5061553;28;20032;-68
2023/12/31 07:38:30;;;;;;;1.58;0.80;;;;;;;18.27;45.86;99428.19;5061367;28;20293;-67
2023/12/31 07:40:55;;;;;;;1.10;0.70;;;;;;;18.30;45.78;99431.31;5062024;28;20432;-67
2023/12/31 07:43:21;;;;;;;1.17;0.70;;;;;;;18.30;45.89;99436.59;5061414;28;20023;-68
2023/12/31 07:45:46;;;;;;;1.65;0.90;;;;;;;18.19;45.89;99409.69;5061590;28;20281;-69
2023/12/31 07:48:11;;;;;;;1.83;0.80;;;;;;;18.25;45.85;99419.59;5061016;28;20032;-67
2023/12/31 07:50:37;;;;;;;1.33;0.80;;;;;;;18.18;45.68;99411.47;5061405;28;20273;-68
2023/12/31 07:53:02;;;;;;;2.10;0.88;;;;;;;18.26;45.75;99429.16;5060209;28;20118;-67
2023/12/31 07:55:27;;;;;;;1.30;0.70;;;;;;;18.25;45.86;99428.34;5061502;28;20079;-69
2023/12/31 07:57:53;;;;;;;1.45;0.63;;;;;;;18.17;45.60;99409.84;5061309;28;20056;-67
2023/12/31 08:00:19;;;;;;;1.33;0.80;;;;;;;18.27;45.91;99421.06;5047903;28;20533;-67
2023/12/31 08:02:44;;;;;;;1.98;0.95;;;;;;;18.17;45.64;99401.13;5060493;28;20504;-68
2023/12/31 08:05:11;;;;;;;2.20;0.90;;;;;;;18.16;45.77;99395.00;5059594;28;20761;-67
2023/12/31 08:07:36;;;;;;;1.88;0.80;;;;;;;18.17;45.80;99396.66;5062136;28;20056;-68
2023/12/31 08:10:01;;;;;;;1.52;0.88;;;;;;;18.15;45.85;99396.00;5061565;28;20071;-67
2023/12/31 08:12:26;;;;;;;1.73;0.77;;;;;;;18.18;45.76;99400.13;5060844;28;20435;-69
2023/12/31 08:14:52;;;;;;;1.63;0.90;;;;;;;18.15;45.79;99397.81;5061455;28;20131;-66
2023/12/31 08:17:17;;;;;;;1.85;0.80;;;;;;;18.18;45.92;99400.13;5061841;28;20269;-68
2023/12/31 08:19:43;;;;;;;1.55;0.70;;;;;;;18.24;45.74;99420.56;5060593;28;20039;-69
2023/12/31 08:22:08;;;;;;;2.03;0.95;;;;;;;18.25;46.30;99390.59;5060896;28;20477;-65
2023/12/31 08:24:33;;;;;;;2.17;0.90;;;;;;;18.26;46.02;99413.31;5061089;28;21162;-67
2023/12/31 08:26:58;;;;;;;1.85;0.88;;;;;;;18.26;46.35;99400.13;5060455;28;20033;-68
2023/12/31 08:29:24;;;;;;;1.50;0.80;;;;;;;18.31;46.24;99413.69;5061229;28;20143;-70
2023/12/31 08:31:50;;;;;;;2.47;1.00;;;;;;;18.24;46.45;99389.75;5059472;28;20033;-67
2023/12/31 08:34:15;;;;;;;2.50;1.05;;;;;;;18.34;46.81;99412.53;5060235;28;20028;-68
2023/12/31 08:36:40;;;;;;;2.97;0.90;;;;;;;18.26;46.55;99389.59;5061427;28;20113;-66
2023/12/31 08:39:06;;;;;;;1.92;0.90;;;;;;;18.29;46.92;99394.53;5060950;28;20044;-68
2023/12/31 08:41:32;;;;;;;3.25;0.85;;;;;;;18.35;47.13;99401.81;5061117;28;20119;-67
2023/12/31 08:43:57;;;;;;;3.15;0.90;;;;;;;18.22;47.17;99398.81;5060813;28;20082;-68
2023/12/31 08:46:22;;;;;;;2.15;1.00;;;;;;;18.37;46.83;99407.75;5061184;28;20079;-68
2023/12/31 08:48:48;;;;;;;2.78;0.90;;;;;;;18.38;46.98;99395.41;5060903;28;20049;-67
2023/12/31 08:51:13;;;;;;;2.03;1.05;;;;;;;18.30;47.12;99388.28;5058074;28;20564;-71
2023/12/31 08:53:39;;;;;;;1.67;1.00;;;;;;;18.40;47.09;99414.53;5059226;28;20116;-69
2023/12/31 08:56:04;;;;;;;2.10;1.02;;;;;;;18.39;47.25;99408.44;5060149;28;20028;-69
2023/12/31 08:58:30;;;;;;;3.45;1.05;;;;;;;18.40;47.29;99401.34;5059806;28;20393;-68
2023/12/31 09:00:57;;;;;;;2.03;0.93;;;;;;;18.48;47.29;99417.19;5059810;28;20389;-69
2023/12/31 09:03:22;;;;;;;2.25;0.90;;;;;;;18.44;47.37;99414.03;5059708;28;20036;-68
2023/12/31 09:05:48;;;;;;;3.15;1.35;;;;;;;18.41;47.23;99406.47;5059418;28;20016;-70
2023/12/31 09:08:13;;;;;;;1.65;0.90;;;;;;;18.47;47.12;99413.72;5059317;28;20032;-70
2023/12/31 09:10:39;;;;;;;2.13;1.02;;;;;;;18.51;47.12;99418.69;5059216;28;20035;-70
2023/12/31 09:13:04;;;;;;;2.00;0.90;;;;;;;18.53;47.18;99421.97;5059190;28;20055;-72
2023/12/31 09:15:29;;;;;;;2.90;1.10;;;;;;;18.54;47.16;99436.84;5058792;28;20044;-72
2023/12/31 09:17:55;;;;;;;3.30;1.02;;;;;;;18.29;47.32;99395.41;5058599;28;20078;-70
2023/12/31 09:20:21;;;;;;;1.65;0.82;;;;;;;18.44;47.19;99416.69;5058266;28;20058;-71
2023/12/31 09:22:50;;;;;;;2.75;1.05;;;;;;;18.52;47.29;99442.28;5056639;28;20468;-71
2023/12/31 09:25:15;;;;;;;3.22;1.02;;;;;;;18.43;47.03;99419.50;5058946;28;20217;-71
2023/12/31 09:27:41;;;;;;;1.83;0.90;;;;;;;18.53;47.08;99440.44;5054342;28;20111;-73
2023/12/31 09:30:07;;;;;;;2.10;0.93;;;;;;;18.46;47.27;99425.25;5058462;28;20428;-70
2023/12/31 09:32:32;;;;;;;2.45;1.02;;;;;;;18.54;46.99;99447.38;5057905;28;20035;-70
2023/12/31 09:34:57;;;;;;;4.00;1.10;;;;;;;18.57;47.15;99449.69;5047238;28;20024;-73
2023/12/31 09:37:24;;;;;;;1.48;0.77;;;;;;;18.58;47.24;99456.59;5056616;28;20036;-69
2023/12/31 09:39:49;;;;;;;1.83;0.90;;;;;;;18.53;47.02;99451.81;5057119;28;20035;-69
2023/12/31 09:42:28;;;;;;;2.03;0.80;;;;;;;18.45;47.05;99452.63;5059101;28;20065;-69
2023/12/31 09:44:55;;;;;;;1.38;0.85;;;;;;;18.52;47.12;99465.16;5059416;28;20039;-69
2023/12/31 09:47:21;;;;;;;2.15;0.90;;;;;;;18.49;47.17;99461.06;5059403;28;20038;-68
2023/12/31 09:49:47;;;;;;;2.25;0.80;;;;;;;18.46;46.81;99466.66;5058543;28;20500;-69
2023/12/31 09:52:13;;;;;;;2.97;1.02;;;;;;;18.45;46.99;99465.84;5059674;28;20405;-68
2023/12/31 09:54:40;;;;;;;1.65;0.77;;;;;;;18.43;46.89;99480.16;5047189;28;20030;-68
2023/12/31 09:57:07;;;;;;;2.05;0.80;;;;;;;18.33;46.95;99466.28;5059750;28;20031;-69
2023/12/31 09:59:32;;;;;;;2.45;0.90;;;;;;;18.41;46.81;99479.50;5059688;28;20477;-69
2023/12/31 10:02:06;;;;;;;2.03;0.85;;;;;;;18.32;46.88;99476.00;5059306;28;20039;-68
2023/12/31 10:04:31;;;;;;;2.15;0.88;;;;;;;18.29;46.90;99477.16;5058906;28;20400;-69
2023/12/31 10:06:57;;;;;;;1.65;0.80;;;;;;;18.33;46.71;99469.75;5058770;28;20127;-69
2023/12/31 10:09:27;;;;;;;2.50;0.80;;;;;;;18.33;46.89;99469.75;5058614;28;20111;-69
2023/12/31 10:11:54;;;;;;;1.58;0.80;;;;;;;18.34;46.71;99466.13;5058584;28;20115;-68
2023/12/31 10:14:20;;;;;;;4.38;0.90;;;;;;;18.37;46.92;99463.13;5058687;28;20113;-68
2023/12/31 10:16:47;;;;;;;3.03;0.80;;;;;;;18.37;46.94;99478.97;5062915;28;20075;-68
2023/12/31 10:19:13;;;;;;;2.08;0.70;;;;;;;18.34;47.18;99471.41;5065247;28;20131;-69
2023/12/31 10:21:41;;;;;;;1.52;0.80;;;;;;;18.25;47.13;99454.69;5065486;28;20078;-68
2023/12/31 10:24:07;;;;;;;1.67;0.80;;;;;;;18.33;46.98;99475.00;5066098;28;20028;-69
2023/12/31 10:26:33;;;;;;;1.83;0.70;;;;;;;18.24;46.92;99460.94;5066123;28;20123;-68
2023/12/31 10:28:59;;;;;;;2.58;1.00;;;;;;;18.25;46.79;99457.34;5065826;28;20086;-69
2023/12/31 10:31:25;;;;;;;1.33;0.60;;;;;;;18.36;46.82;99482.59;5066141;28;20024;-69
2023/12/31 10:33:50;;;;;;;2.40;0.77;;;;;;;18.25;47.01;99465.25;5053190;28;20032;-69
2023/12/31 10:36:20;;;;;;;1.85;0.70;;;;;;;18.34;46.91;99471.41;5065792;28;20098;-69
2023/12/31 10:38:47;;;;;;;2.13;0.80;;;;;;;18.25;47.39;99472.34;5065914;28;20032;-68
2023/12/31 10:41:21;;;;;;;1.27;0.70;;;;;;;18.36;47.20;99484.41;5065906;28;20115;-68
2023/12/31 10:43:49;;;;;;;1.88;0.80;;;;;;;18.35;47.46;99483.59;5065664;28;20037;-69
2023/12/31 10:46:16;;;;;;;2.17;0.65;;;;;;;18.32;47.03;99494.44;5065560;28;20028;-68
2023/12/31 10:48:55;;;;;;;1.25;0.70;;;;;;;18.28;47.16;99482.59;5065802;28;20087;-68
2023/12/31 10:51:26;;;;;;;2.08;0.70;;;;;;;18.35;47.22;99488.03;5065484;28;20044;-68
2023/12/31 10:53:54;;;;;;;2.05;0.77;;;;;;;18.29;47.19;99476.31;5064681;28;20032;-70
2023/12/31 10:56:20;;;;;;;3.08;0.90;;;;;;;18.30;47.16;99472.69;5065671;28;20028;-68
2023/12/31 10:58:46;;;;;;;2.17;0.75;;;;;;;18.28;47.31;99466.75;5065064;28;20103;-67
2023/12/31 11:01:12;;;;;;;2.33;0.77;;;;;;;18.21;47.06;99463.91;5065278;28;20036;-70
2023/12/31 11:03:39;;;;;;;1.85;0.80;;;;;;;18.32;47.06;99478.63;5064708;28;20193;-69
2023/12/31 11:06:06;;;;;;;2.30;0.73;;;;;;;18.31;47.00;99480.44;5064920;28;20519;-70
2023/12/31 11:08:32;;;;;;;1.88;0.60;;;;;;;18.26;47.02;99482.75;5065187;28;20044;-70
2023/12/31 11:10:58;;;;;;;2.30;0.60;;;;;;;18.25;47.12;99481.06;5065517;28;20045;-70
2023/12/31 11:13:25;;;;;;;1.77;0.80;;;;;;;18.20;47.01;99469.34;5065571;28;20033;-70
2023/12/31 11:15:53;;;;;;;1.98;0.77;;;;;;;18.28;47.11;99487.84;5052924;28;20388;-69
2023/12/31 11:18:32;;;;;;;0.82;0.57;;;;;;;18.29;46.69;99489.50;5052340;28;20035;-70
2023/12/31 11:21:41;;;;;;;1.70;0.70;;;;;;;18.19;46.75;99479.06;5065230;28;20058;-69
2023/12/31 11:24:14;;;;;;;1.00;0.50;;;;;;;18.29;46.96;99498.25;5059600;28;20512;-70
2023/12/31 11:26:40;;;;;;;0.73;0.53;;;;;;;18.29;46.74;99497.41;5064574;28;20396;-69